Time;durP1;ratioP1;P1;durP2;ratioP2;P2;SDS_P1;SDS_P2;PMS_P1;PMS_P2;Temp;Humidity;BMP_temperature;BMP_pressure;BME280_temperature;BME280_humidity;BME280_pressure;Samples;Min_cycle;Max_cycle;Signal;HPM_P1;HPM_P2
2021/07/10 00:00:10;;;;;;;;;;;;;;;21.41;52.93;101676.78;2209493;39;114796;-56
2021/07/10 00:01:42;;;;;;;;;;;;;;;21.40;52.64;101675.09;2211847;39;115343;-56
2021/07/10 00:03:14;;;;;;;;;;;;;;;21.41;52.93;101676.78;2213870;39;115733;-57
2021/07/10 00:04:46;;;;;;;;;;;;;;;21.41;52.62;101678.75;2210094;39;116135;-56
2021/07/10 00:06:18;;;;;;;;;;;;;;;21.41;52.54;101673.13;2209335;39;115456;-56
2021/07/10 00:07:50;;;;;;;;;;;;;;;21.40;52.81;101679.88;2210989;39;115479;-57
2021/07/10 00:09:22;;;;;;;;;;;;;;;21.43;53.06;101684.94;2211600;39;115463;-56
2021/07/10 00:10:53;;;;;;;;;;;;;;;21.41;52.61;101682.41;2211151;39;115617;-56
2021/07/10 00:12:28;;;;;;;;;;;;;;;21.42;52.82;101678.47;2208786;39;115401;-57
2021/07/10 00:14:00;;;;;;;;;;;;;;;21.42;53.05;101683.25;2211302;39;115696;-57
2021/07/10 00:15:33;;;;;;;;;;;;;;;21.41;52.87;101673.97;2211654;39;115546;-56
2021/07/10 00:17:05;;;;;;;;;;;;;;;21.40;52.99;101669.47;2211600;39;115942;-56
2021/07/10 00:18:37;;;;;;;;;;;;;;;21.42;53.03;101664.41;2210460;39;115560;-56
2021/07/10 00:20:09;;;;;;;;;;;;;;;21.41;52.78;101659.91;2209763;39;115488;-55
2021/07/10 00:21:41;;;;;;;;;;;;;;;21.41;52.72;101665.53;2204705;39;115946;-56
2021/07/10 00:23:13;;;;;;;;;;;;;;;21.41;52.99;101659.91;2209447;39;115523;-56
2021/07/10 00:24:45;;;;;;;;;;;;;;;21.42;52.85;101661.59;2209441;39;115515;-57
2021/07/10 00:26:17;;;;;;;;;;;;;;;21.41;52.98;101662.72;2208993;39;113792;-56
2021/07/10 00:27:50;;;;;;;;;;;;;;;21.43;52.95;101663.28;2210836;39;113656;-56
2021/07/10 00:29:21;;;;;;;;;;;;;;;21.45;53.19;101663.81;2207853;39;113807;-57
2021/07/10 00:30:53;;;;;;;;;;;;;;;21.41;52.77;101659.91;2211385;39;114141;-56
2021/07/10 00:32:25;;;;;;;;;;;;;;;21.45;53.20;101658.19;2211717;39;114013;-56
2021/07/10 00:33:57;;;;;;;;;;;;;;;21.42;53.20;101660.75;2211361;39;114072;-56
2021/07/10 00:35:29;;;;;;;;;;;;;;;21.43;53.15;101657.66;2210746;39;113668;-56
2021/07/10 00:37:02;;;;;;;;;;;;;;;21.41;52.80;101662.72;2211218;39;113665;-56
2021/07/10 00:38:33;;;;;;;;;;;;;;;21.41;53.23;101657.09;2210424;39;114074;-56
2021/07/10 00:40:07;;;;;;;;;;;;;;;21.43;52.97;101660.47;2211212;39;113883;-56
2021/07/10 00:41:38;;;;;;;;;;;;;;;21.42;52.90;101652.31;2211174;39;113840;-56
2021/07/10 00:43:10;;;;;;;;;;;;;;;21.40;52.99;101651.78;2204333;39;115081;-56
2021/07/10 00:44:43;;;;;;;;;;;;;;;21.41;53.01;101659.06;2208849;39;113918;-56
2021/07/10 00:46:18;;;;;;;;;;;;;;;21.41;52.95;101659.91;2205226;39;114035;-56
2021/07/10 00:47:50;;;;;;;;;;;;;;;21.41;52.80;101648.66;2208471;39;115151;-56
2021/07/10 00:49:22;;;;;;;;;;;;;;;21.41;53.20;101653.44;2211112;39;114259;-56
2021/07/10 00:50:54;;;;;;;;;;;;;;;21.40;53.37;101652.63;2210159;39;115007;-57
2021/07/10 00:52:26;;;;;;;;;;;;;;;21.41;53.10;101650.66;2209245;39;114733;-56
2021/07/10 00:53:58;;;;;;;;;;;;;;;21.42;53.08;101655.97;2208275;39;115395;-56
2021/07/10 00:55:30;;;;;;;;;;;;;;;21.42;53.19;101650.34;2208904;39;114827;-57
2021/07/10 00:57:02;;;;;;;;;;;;;;;21.40;53.36;101647.00;2210496;39;113831;-56
2021/07/10 00:58:35;;;;;;;;;;;;;;;21.41;53.14;101645.88;2211129;39;114521;-56
2021/07/10 01:00:08;;;;;;;;;;;;;;;21.42;53.01;101643.91;2211149;39;114760;-57
2021/07/10 01:01:40;;;;;;;;;;;;;;;21.40;53.13;101638.56;2210414;39;114792;-57
2021/07/10 01:03:14;;;;;;;;;;;;;;;21.44;53.26;101645.25;2211274;39;115380;-56
2021/07/10 01:04:46;;;;;;;;;;;;;;;21.42;53.23;101638.28;2210930;39;115143;-57
2021/07/10 01:06:18;;;;;;;;;;;;;;;21.44;52.95;101636.81;2210045;39;114813;-56
2021/07/10 01:07:50;;;;;;;;;;;;;;;21.43;53.21;101626.75;2211625;39;114726;-56
2021/07/10 01:09:22;;;;;;;;;;;;;;;21.44;53.19;101625.56;2212609;39;115432;-56
2021/07/10 01:10:55;;;;;;;;;;;;;;;21.41;53.43;101637.44;2210822;39;115965;-57
2021/07/10 01:12:27;;;;;;;;;;;;;;;21.42;53.50;101633.50;2209110;39;115461;-56
2021/07/10 01:14:00;;;;;;;;;;;;;;;21.42;53.31;101638.28;2211109;39;114596;-57
2021/07/10 01:15:32;;;;;;;;;;;;;;;21.44;53.27;101638.81;2210478;39;115599;-56
2021/07/10 01:17:04;;;;;;;;;;;;;;;21.40;53.09;101634.91;2205965;39;115595;-57
2021/07/10 01:18:36;;;;;;;;;;;;;;;21.41;52.99;101643.06;2210951;39;117069;-56
2021/07/10 01:20:09;;;;;;;;;;;;;;;21.40;53.39;101641.38;2211584;39;115608;-56
2021/07/10 01:21:41;;;;;;;;;;;;;;;21.41;53.09;101637.44;2206816;39;115482;-56
2021/07/10 01:23:13;;;;;;;;;;;;;;;21.38;53.26;101629.59;2211312;39;115424;-56
2021/07/10 01:24:45;;;;;;;;;;;;;;;21.38;53.29;101631.56;2210660;39;115496;-57
2021/07/10 01:26:18;;;;;;;;;;;;;;;21.38;53.26;101617.50;2211031;39;116065;-57
2021/07/10 01:27:50;;;;;;;;;;;;;;;21.40;53.36;101618.88;2211591;39;114925;-57
2021/07/10 01:29:22;;;;;;;;;;;;;;;21.37;53.11;101615.84;2210815;39;116484;-57
2021/07/10 01:30:55;;;;;;;;;;;;;;;21.38;53.33;101620.31;2213121;39;115511;-56
2021/07/10 01:32:28;;;;;;;;;;;;;;;21.38;53.14;101615.53;2208421;39;113657;-56
2021/07/10 01:34:01;;;;;;;;;;;;;;;21.38;53.04;101621.16;2208460;39;113921;-56
2021/07/10 01:35:33;;;;;;;;;;;;;;;21.37;53.25;101613.88;2211142;39;114064;-56
2021/07/10 01:37:05;;;;;;;;;;;;;;;21.38;53.65;101614.69;2211475;39;113683;-56
2021/07/10 01:38:37;;;;;;;;;;;;;;;21.40;53.31;101613.25;2210815;39;113683;-56
2021/07/10 01:40:11;;;;;;;;;;;;;;;21.39;53.37;101617.22;2210615;39;113860;-56
2021/07/10 01:41:44;;;;;;;;;;;;;;;21.38;53.46;101611.91;2210324;39;114719;-56
2021/07/10 01:43:16;;;;;;;;;;;;;;;21.39;53.84;101611.59;2210285;39;114383;-56
2021/07/10 01:44:49;;;;;;;;;;;;;;;21.39;53.40;101605.97;2211049;39;114035;-56
2021/07/10 01:46:20;;;;;;;;;;;;;;;21.40;53.46;101604.81;2211215;39;114194;-57
2021/07/10 01:47:53;;;;;;;;;;;;;;;21.38;53.69;101606.28;2211707;39;113867;-57
2021/07/10 01:49:25;;;;;;;;;;;;;;;21.35;53.39;101602.06;2210726;39;113969;-56
2021/07/10 01:50:57;;;;;;;;;;;;;;;21.36;53.44;101600.94;2211246;39;113851;-56
2021/07/10 01:52:29;;;;;;;;;;;;;;;21.37;53.59;101593.34;2213300;39;113604;-56
2021/07/10 01:54:01;;;;;;;;;;;;;;;21.36;53.78;101602.91;2210525;39;115791;-56
2021/07/10 01:55:33;;;;;;;;;;;;;;;21.37;53.81;101590.53;2208044;39;114895;-56
2021/07/10 01:57:07;;;;;;;;;;;;;;;21.41;53.88;101591.59;2210811;39;114845;-56
2021/07/10 01:58:38;;;;;;;;;;;;;;;21.38;53.48;101589.41;2210008;39;115142;-56
2021/07/10 02:00:12;;;;;;;;;;;;;;;21.37;53.89;101594.19;2207794;39;114694;-57
2021/07/10 02:01:46;;;;;;;;;;;;;;;21.39;53.39;101591.09;2208547;39;114770;-56
2021/07/10 02:03:18;;;;;;;;;;;;;;;21.40;53.63;101590.75;2208320;39;115215;-56
2021/07/10 02:04:51;;;;;;;;;;;;;;;21.39;53.83;101589.13;2211143;39;115512;-56
2021/07/10 02:06:23;;;;;;;;;;;;;;;21.40;53.75;101592.72;2211458;39;114834;-56
2021/07/10 02:07:57;;;;;;;;;;;;;;;21.36;53.71;101584.06;2210668;39;113812;-56
2021/07/10 02:09:29;;;;;;;;;;;;;;;21.36;53.71;101578.44;2210690;39;114715;-56
2021/07/10 02:11:02;;;;;;;;;;;;;;;21.37;53.75;101574.50;2210809;39;115230;-55
2021/07/10 02:12:34;;;;;;;;;;;;;;;21.36;53.34;101581.25;2211299;39;114933;-56
2021/07/10 02:14:05;;;;;;;;;;;;;;;21.37;53.67;101579.28;2206112;39;115361;-56
2021/07/10 02:15:38;;;;;;;;;;;;;;;21.37;53.76;101571.69;2206762;39;115522;-56
2021/07/10 02:17:10;;;;;;;;;;;;;;;21.37;53.66;101568.88;2206882;39;115856;-57
2021/07/10 02:18:42;;;;;;;;;;;;;;;21.38;54.17;101564.09;2207480;39;115926;-56
2021/07/10 02:20:15;;;;;;;;;;;;;;;21.38;53.70;101562.13;2211296;39;115744;-57
2021/07/10 02:21:47;;;;;;;;;;;;;;;21.36;53.95;101557.94;2209994;39;114648;-56
2021/07/10 02:23:19;;;;;;;;;;;;;;;21.37;54.02;101562.41;2208364;39;115487;-56
2021/07/10 02:24:51;;;;;;;;;;;;;;;21.36;53.77;101557.94;2206413;39;114620;-57
2021/07/10 02:26:24;;;;;;;;;;;;;;;21.36;53.99;101553.16;2212430;39;115519;-56
2021/07/10 02:27:56;;;;;;;;;;;;;;;21.36;53.99;101555.97;2211279;39;115635;-55
2021/07/10 02:29:28;;;;;;;;;;;;;;;21.36;54.04;101552.31;2211073;39;114529;-57
2021/07/10 02:31:00;;;;;;;;;;;;;;;21.37;53.77;101556.78;2210780;39;115437;-56
2021/07/10 02:32:32;;;;;;;;;;;;;;;21.37;53.88;101556.78;2210620;39;115973;-56
2021/07/10 02:34:04;;;;;;;;;;;;;;;21.36;53.78;101561.56;2210444;39;115593;-56
2021/07/10 02:35:35;;;;;;;;;;;;;;;21.37;53.73;101562.41;2213569;39;115529;-56
2021/07/10 02:37:07;;;;;;;;;;;;;;;21.37;53.93;101562.41;2203271;39;113764;-57
2021/07/10 02:38:39;;;;;;;;;;;;;;;21.36;53.51;101566.34;2205942;39;113883;-56
2021/07/10 02:40:12;;;;;;;;;;;;;;;21.37;53.95;101559.59;2211130;39;113742;-56
2021/07/10 02:41:44;;;;;;;;;;;;;;;21.36;53.65;101555.97;2210266;39;114213;-57
2021/07/10 02:43:16;;;;;;;;;;;;;;;21.37;53.91;101556.78;2208339;39;113804;-56
2021/07/10 02:44:48;;;;;;;;;;;;;;;21.41;53.65;101557.88;2205734;39;113893;-56
2021/07/10 02:46:19;;;;;;;;;;;;;;;21.41;53.58;101560.69;2207896;39;113754;-56
2021/07/10 02:47:52;;;;;;;;;;;;;;;21.37;53.50;101549.22;2210607;39;113665;-56
2021/07/10 02:49:24;;;;;;;;;;;;;;;21.38;53.26;101558.47;2210706;39;113757;-56
2021/07/10 02:50:56;;;;;;;;;;;;;;;21.37;53.65;101552.00;2211209;39;113988;-56
2021/07/10 02:52:27;;;;;;;;;;;;;;;21.36;53.55;101553.16;2211288;39;113716;-56
2021/07/10 02:53:59;;;;;;;;;;;;;;;21.39;53.59;101548.91;2209907;39;113588;-56
2021/07/10 02:55:32;;;;;;;;;;;;;;;21.41;53.78;101549.44;2211083;39;113985;-56
2021/07/10 02:57:04;;;;;;;;;;;;;;;21.40;53.54;101545.78;2210722;39;113805;-57
2021/07/10 02:58:36;;;;;;;;;;;;;;;21.38;53.55;101547.22;2213302;39;114189;-57
2021/07/10 03:00:10;;;;;;;;;;;;;;;21.38;53.76;101545.25;2209750;39;113922;-56
2021/07/10 03:01:42;;;;;;;;;;;;;;;21.37;53.63;101537.97;2210907;39;115105;-57
2021/07/10 03:03:14;;;;;;;;;;;;;;;21.36;53.51;101539.09;2209793;39;114870;-57
2021/07/10 03:04:46;;;;;;;;;;;;;;;21.37;53.42;101540.78;2209016;39;114840;-56
2021/07/10 03:06:18;;;;;;;;;;;;;;;21.36;53.41;101530.66;2204180;39;114770;-56
2021/07/10 03:07:50;;;;;;;;;;;;;;;21.36;53.35;101532.63;2209706;39;114858;-57
2021/07/10 03:09:22;;;;;;;;;;;;;;;21.36;53.36;101527.84;2210291;39;114738;-56
2021/07/10 03:10:54;;;;;;;;;;;;;;;21.37;53.82;101528.69;2209476;39;113909;-56
2021/07/10 03:12:26;;;;;;;;;;;;;;;21.40;53.69;101522.44;2210831;39;114142;-56
2021/07/10 03:13:58;;;;;;;;;;;;;;;21.36;53.79;101515.75;2211200;39;114755;-56
2021/07/10 03:15:30;;;;;;;;;;;;;;;21.36;53.72;101510.13;2209645;39;114813;-56
2021/07/10 03:17:02;;;;;;;;;;;;;;;21.37;53.85;101511.81;2214504;39;115060;-57
2021/07/10 03:18:34;;;;;;;;;;;;;;;21.36;53.73;101512.94;2209443;39;114852;-57
2021/07/10 03:20:06;;;;;;;;;;;;;;;21.36;53.69;101515.75;2211287;39;114746;-57
2021/07/10 03:21:38;;;;;;;;;;;;;;;21.38;53.76;101516.31;2214102;39;114698;-56
2021/07/10 03:23:10;;;;;;;;;;;;;;;21.35;53.88;101508.50;2210556;39;115601;-56
2021/07/10 03:24:42;;;;;;;;;;;;;;;21.33;53.65;101505.13;2209132;39;115793;-57
2021/07/10 03:26:14;;;;;;;;;;;;;;;21.35;53.90;101509.31;2210206;39;115470;-56
2021/07/10 03:27:47;;;;;;;;;;;;;;;21.35;53.95;101512.09;2210255;39;115512;-56
2021/07/10 03:29:19;;;;;;;;;;;;;;;21.36;53.81;101510.97;2206098;39;116567;-56
2021/07/10 03:30:53;;;;;;;;;;;;;;;21.36;53.91;101510.13;2210074;39;115529;-56
2021/07/10 03:32:25;;;;;;;;;;;;;;;21.34;54.09;101504.84;2211858;39;115546;-57
2021/07/10 03:33:56;;;;;;;;;;;;;;;21.35;53.86;101503.69;2210125;39;115446;-56
2021/07/10 03:35:28;;;;;;;;;;;;;;;21.34;54.02;101504.84;2208413;39;115513;-56
2021/07/10 03:37:00;;;;;;;;;;;;;;;21.34;53.83;101506.81;2208290;39;115588;-56
2021/07/10 03:38:33;;;;;;;;;;;;;;;21.33;54.07;101499.50;2211737;39;114564;-56
2021/07/10 03:40:06;;;;;;;;;;;;;;;21.34;53.92;101498.38;2211367;39;115680;-56
2021/07/10 03:41:38;;;;;;;;;;;;;;;21.33;53.79;101494.72;2214930;39;115258;-55
2021/07/10 03:43:10;;;;;;;;;;;;;;;21.34;54.14;101512.44;2211171;39;114133;-56
2021/07/10 03:44:42;;;;;;;;;;;;;;;21.33;54.09;101505.97;2210902;39;113731;-56
2021/07/10 03:46:14;;;;;;;;;;;;;;;21.33;54.20;101513.56;2211794;39;113803;-56
2021/07/10 03:47:47;;;;;;;;;;;;;;;21.33;54.03;101507.94;2211966;39;116104;-56
2021/07/10 03:49:19;;;;;;;;;;;;;;;21.33;54.45;101505.13;2211103;39;113675;-57
2021/07/10 03:50:51;;;;;;;;;;;;;;;21.32;54.10;101509.91;2211470;39;113652;-56
2021/07/10 03:52:23;;;;;;;;;;;;;;;21.33;54.42;101513.56;2212031;39;113897;-56
2021/07/10 03:53:55;;;;;;;;;;;;;;;21.32;54.15;101514.69;2211631;39;113607;-56
2021/07/10 03:55:27;;;;;;;;;;;;;;;21.33;54.34;101517.22;2211623;39;113943;-56
2021/07/10 03:56:59;;;;;;;;;;;;;;;21.32;54.27;101515.53;2205929;39;113814;-57
2021/07/10 03:58:30;;;;;;;;;;;;;;;21.32;54.18;101517.50;2210399;39;113689;-56
2021/07/10 04:00:04;;;;;;;;;;;;;;;21.34;54.34;101509.63;2217075;39;113711;-56
2021/07/10 04:01:36;;;;;;;;;;;;;;;21.33;53.94;101508.78;2212910;39;113935;-56
2021/07/10 04:03:08;;;;;;;;;;;;;;;21.32;53.99;101507.09;2213444;39;113708;-57
2021/07/10 04:04:40;;;;;;;;;;;;;;;21.32;53.83;101503.44;2211004;39;114738;-56
2021/07/10 04:06:12;;;;;;;;;;;;;;;21.30;54.29;101501.78;2211893;39;115183;-57
2021/07/10 04:07:44;;;;;;;;;;;;;;;21.31;54.08;101508.22;2211854;39;114730;-57
2021/07/10 04:09:16;;;;;;;;;;;;;;;21.32;54.20;101511.88;2210552;39;114752;-57
2021/07/10 04:10:48;;;;;;;;;;;;;;;21.31;53.93;101505.41;2214186;39;114775;-56
2021/07/10 04:12:20;;;;;;;;;;;;;;;21.30;54.24;101515.81;2205562;39;114729;-56
2021/07/10 04:13:52;;;;;;;;;;;;;;;21.31;53.90;101513.84;2211288;39;114880;-57
2021/07/10 04:15:24;;;;;;;;;;;;;;;21.31;54.09;101519.47;2211743;39;114979;-57
2021/07/10 04:16:56;;;;;;;;;;;;;;;21.29;54.20;101508.56;2211828;39;114734;-56
2021/07/10 04:18:28;;;;;;;;;;;;;;;21.29;54.13;101511.38;2211544;39;115368;-56
2021/07/10 04:20:00;;;;;;;;;;;;;;;21.30;54.17;101506.59;2210461;39;114692;-57
2021/07/10 04:21:32;;;;;;;;;;;;;;;21.30;54.27;101500.97;2211342;39;113893;-56
2021/07/10 04:23:05;;;;;;;;;;;;;;;21.32;54.25;101506.25;2211559;39;114762;-56
2021/07/10 04:24:37;;;;;;;;;;;;;;;21.32;53.83;101498.66;2219116;39;114316;-56
2021/07/10 04:26:09;;;;;;;;;;;;;;;21.29;54.03;101499.28;2212881;39;114528;-56
2021/07/10 04:27:43;;;;;;;;;;;;;;;21.32;53.78;101500.63;2211560;39;115899;-56
2021/07/10 04:29:15;;;;;;;;;;;;;;;21.30;54.24;101504.56;2211803;39;114891;-56
2021/07/10 04:30:47;;;;;;;;;;;;;;;21.30;54.09;101500.97;2211676;39;115604;-56
2021/07/10 04:32:20;;;;;;;;;;;;;;;21.30;54.16;101496.16;2211214;39;114997;-56
2021/07/10 04:33:51;;;;;;;;;;;;;;;21.30;54.19;101498.16;2210342;39;114747;-56
2021/07/10 04:35:23;;;;;;;;;;;;;;;21.29;53.91;101496.47;2212003;39;115939;-56
2021/07/10 04:36:57;;;;;;;;;;;;;;;21.30;53.97;101500.97;2211098;39;115436;-56
2021/07/10 04:38:29;;;;;;;;;;;;;;;21.28;53.90;101498.44;2210447;39;115916;-56
2021/07/10 04:40:01;;;;;;;;;;;;;;;21.27;54.14;101493.09;2211458;39;115770;-56
2021/07/10 04:41:34;;;;;;;;;;;;;;;21.26;53.86;101489.47;2217369;39;115701;-57
2021/07/10 04:43:06;;;;;;;;;;;;;;;21.27;53.92;101485.50;2211402;39;115660;-56
2021/07/10 04:44:38;;;;;;;;;;;;;;;21.29;53.95;101485.22;2210631;39;116081;-56
2021/07/10 04:46:11;;;;;;;;;;;;;;;21.28;53.84;101491.97;2211626;39;114627;-56
2021/07/10 04:47:44;;;;;;;;;;;;;;;21.27;54.22;101488.31;2213363;39;116224;-56
2021/07/10 04:49:16;;;;;;;;;;;;;;;21.28;54.25;101495.63;2208504;39;113738;-56
2021/07/10 04:50:48;;;;;;;;;;;;;;;21.28;54.00;101491.97;2208607;39;114327;-57
2021/07/10 04:52:19;;;;;;;;;;;;;;;21.26;54.22;101491.44;2211479;39;113732;-56
2021/07/10 04:53:51;;;;;;;;;;;;;;;21.26;53.97;101495.06;2211114;39;113872;-57
2021/07/10 04:55:23;;;;;;;;;;;;;;;21.26;53.92;101499.84;2211331;39;113959;-56
2021/07/10 04:56:55;;;;;;;;;;;;;;;21.27;54.17;101493.09;2211297;39;113702;-56
2021/07/10 04:58:27;;;;;;;;;;;;;;;21.25;53.90;101495.41;2211391;39;113663;-57
2021/07/10 04:59:59;;;;;;;;;;;;;;;21.27;54.18;101495.91;2211577;39;114270;-56
2021/07/10 05:01:31;;;;;;;;;;;;;;;21.26;54.25;101494.25;2211907;39;113587;-56
2021/07/10 05:03:03;;;;;;;;;;;;;;;21.26;54.13;101497.88;2210558;39;113871;-57
2021/07/10 05:04:35;;;;;;;;;;;;;;;21.24;54.11;101496.53;2210375;39;113733;-56
2021/07/10 05:06:08;;;;;;;;;;;;;;;21.24;54.26;101503.00;2211338;39;113864;-57
2021/07/10 05:07:40;;;;;;;;;;;;;;;21.24;54.26;101503.00;2210523;39;113839;-56
2021/07/10 05:09:12;;;;;;;;;;;;;;;21.26;54.32;101503.50;2211585;39;113775;-56
2021/07/10 05:10:44;;;;;;;;;;;;;;;21.24;54.20;101500.19;2210719;39;114783;-57
2021/07/10 05:12:18;;;;;;;;;;;;;;;21.24;54.07;101504.97;2211494;39;114842;-57
2021/07/10 05:13:50;;;;;;;;;;;;;;;21.24;54.12;101503.00;2210840;39;114908;-57
2021/07/10 05:15:22;;;;;;;;;;;;;;;21.24;53.99;101504.97;2216760;39;114735;-56
2021/07/10 05:16:54;;;;;;;;;;;;;;;21.25;54.38;101506.63;2210977;39;113956;-56
2021/07/10 05:18:25;;;;;;;;;;;;;;;21.24;54.03;101510.59;2208834;39;115430;-56
2021/07/10 05:19:57;;;;;;;;;;;;;;;21.25;54.12;101503.81;2212983;39;114781;-57
2021/07/10 05:21:29;;;;;;;;;;;;;;;21.26;54.41;101506.31;2212281;39;114741;-57
2021/07/10 05:23:01;;;;;;;;;;;;;;;21.24;54.39;101511.41;2211217;39;115049;-56
2021/07/10 05:24:33;;;;;;;;;;;;;;;21.23;54.21;101506.09;2211187;39;114791;-57
2021/07/10 05:26:05;;;;;;;;;;;;;;;21.23;54.54;101501.31;2211575;39;114875;-57
2021/07/10 05:27:37;;;;;;;;;;;;;;;21.22;54.11;101502.44;2212040;39;114837;-56
2021/07/10 05:29:09;;;;;;;;;;;;;;;21.20;54.15;101507.53;2210956;39;113905;-56
2021/07/10 05:30:41;;;;;;;;;;;;;;;21.23;54.49;101508.91;2214058;39;113978;-56
2021/07/10 05:32:13;;;;;;;;;;;;;;;21.27;54.21;101505.19;2203484;39;115912;-57
2021/07/10 05:33:45;;;;;;;;;;;;;;;21.24;54.22;101507.78;2211912;39;115566;-56
2021/07/10 05:35:19;;;;;;;;;;;;;;;21.24;54.28;101507.78;2212766;39;115898;-56
2021/07/10 05:36:51;;;;;;;;;;;;;;;21.24;54.47;101502.16;2210166;39;115628;-56
2021/07/10 05:38:23;;;;;;;;;;;;;;;21.26;54.38;101495.06;2211574;39;115482;-56
2021/07/10 05:39:55;;;;;;;;;;;;;;;21.24;54.34;101502.16;2211043;39;115543;-56
2021/07/10 05:41:27;;;;;;;;;;;;;;;21.25;54.56;101509.44;2211274;39;115707;-56
2021/07/10 05:42:59;;;;;;;;;;;;;;;21.24;54.40;101503.00;2211125;39;116048;-57
2021/07/10 05:44:31;;;;;;;;;;;;;;;21.23;54.56;101506.09;2210670;39;115485;-56
2021/07/10 05:46:03;;;;;;;;;;;;;;;21.22;54.42;101501.59;2210400;39;116026;-57
2021/07/10 05:47:35;;;;;;;;;;;;;;;21.22;54.35;101504.41;2211051;39;114586;-56
2021/07/10 05:49:07;;;;;;;;;;;;;;;21.22;54.37;101496.81;2210445;39;115507;-57
2021/07/10 05:50:39;;;;;;;;;;;;;;;21.24;54.49;101493.72;2211255;39;115571;-56
2021/07/10 05:52:11;;;;;;;;;;;;;;;21.23;54.57;101506.09;2213740;39;115470;-57
2021/07/10 05:53:43;;;;;;;;;;;;;;;21.23;54.25;101501.31;2211319;39;113558;-57
2021/07/10 05:55:15;;;;;;;;;;;;;;;21.24;54.33;101503.00;2211449;39;113892;-57
2021/07/10 05:56:47;;;;;;;;;;;;;;;21.25;54.00;101495.41;2209755;39;113749;-57
2021/07/10 05:58:19;;;;;;;;;;;;;;;21.23;54.30;101498.50;2210562;39;113939;-56
2021/07/10 05:59:50;;;;;;;;;;;;;;;21.26;54.35;101497.88;2208975;39;113570;-56
2021/07/10 06:01:23;;;;;;;;;;;;;;;21.23;54.27;101492.03;2211440;39;113584;-57
2021/07/10 06:02:56;;;;;;;;;;;;;;;21.26;54.13;101499.84;2211315;39;113663;-57
2021/07/10 06:04:27;;;;;;;;;;;;;;;21.23;54.14;101503.28;2211295;39;113697;-56
2021/07/10 06:05:59;;;;;;;;;;;;;;;21.23;54.22;101503.28;2210837;39;113760;-56
2021/07/10 06:07:31;;;;;;;;;;;;;;;21.27;54.00;101498.72;2209991;39;113782;-57
2021/07/10 06:09:03;;;;;;;;;;;;;;;21.23;54.13;101503.28;2210585;39;113786;-57
2021/07/10 06:10:37;;;;;;;;;;;;;;;21.24;54.11;101497.38;2209979;39;113629;-57
2021/07/10 06:12:10;;;;;;;;;;;;;;;21.21;53.99;101492.31;2208464;39;113613;-56
2021/07/10 06:13:42;;;;;;;;;;;;;;;21.23;54.10;101495.69;2210723;39;114077;-57
2021/07/10 06:15:14;;;;;;;;;;;;;;;21.23;54.28;101500.47;2214126;39;113607;-57
2021/07/10 06:16:45;;;;;;;;;;;;;;;21.20;54.01;101499.09;2210864;39;115207;-57
2021/07/10 06:18:17;;;;;;;;;;;;;;;21.21;54.29;101497.13;2210670;39;115179;-57
2021/07/10 06:19:49;;;;;;;;;;;;;;;21.20;53.97;101489.84;2211106;39;115470;-56
2021/07/10 06:21:21;;;;;;;;;;;;;;;21.19;54.02;101491.81;2210795;39;115642;-57
2021/07/10 06:22:54;;;;;;;;;;;;;;;21.19;54.21;101483.38;2210694;39;114341;-56
2021/07/10 06:24:26;;;;;;;;;;;;;;;21.21;54.25;101485.91;2211032;39;114780;-56
2021/07/10 06:25:57;;;;;;;;;;;;;;;21.20;54.21;101478.59;2204361;39;113972;-57
2021/07/10 06:27:29;;;;;;;;;;;;;;;21.19;54.05;101489.00;2204458;39;114974;-56
2021/07/10 06:29:02;;;;;;;;;;;;;;;21.19;54.29;101477.75;2210772;39;113923;-56
2021/07/10 06:30:34;;;;;;;;;;;;;;;21.18;53.96;101478.03;2211377;39;115928;-56
2021/07/10 06:32:07;;;;;;;;;;;;;;;21.18;54.25;101478.88;2211448;39;114823;-56
2021/07/10 06:33:39;;;;;;;;;;;;;;;21.19;54.16;101480.56;2210806;39;115176;-56
2021/07/10 06:35:11;;;;;;;;;;;;;;;21.20;54.08;101481.41;2210908;39;114693;-56
2021/07/10 06:36:44;;;;;;;;;;;;;;;21.19;54.09;101482.53;2212506;39;113946;-56
2021/07/10 06:38:16;;;;;;;;;;;;;;;21.20;54.58;101476.63;2211069;39;115749;-56
2021/07/10 06:39:47;;;;;;;;;;;;;;;21.19;54.20;101472.13;2210679;39;115787;-57
2021/07/10 06:41:19;;;;;;;;;;;;;;;21.18;54.72;101476.06;2210816;39;115420;-57
2021/07/10 06:42:52;;;;;;;;;;;;;;;21.18;54.92;101467.66;2209932;39;115681;-56
2021/07/10 06:44:24;;;;;;;;;;;;;;;21.18;55.00;101472.41;2210828;39;115845;-56
2021/07/10 06:45:56;;;;;;;;;;;;;;;21.19;55.52;101477.75;2211229;39;115477;-57
2021/07/10 06:47:28;;;;;;;;;;;;;;;21.19;55.13;101477.75;2208377;39;114720;-57
2021/07/10 06:49:00;;;;;;;;;;;;;;;21.21;55.48;101478.28;2211091;39;114565;-56
2021/07/10 06:50:32;;;;;;;;;;;;;;;21.22;55.39;101477.16;2209839;39;116426;-56
2021/07/10 06:52:05;;;;;;;;;;;;;;;21.24;55.80;101480.50;2207057;39;115589;-56
2021/07/10 06:53:38;;;;;;;;;;;;;;;21.25;55.69;101475.72;2209993;39;115664;-56
2021/07/10 06:55:12;;;;;;;;;;;;;;;21.26;55.91;101477.38;2209220;39;115821;-56
2021/07/10 06:56:44;;;;;;;;;;;;;;;21.27;55.53;101470.63;2210766;39;115681;-56
2021/07/10 06:58:15;;;;;;;;;;;;;;;21.29;55.89;101472.00;2212825;39;116423;-56
2021/07/10 06:59:47;;;;;;;;;;;;;;;21.32;55.87;101472.53;2211178;39;113933;-56
2021/07/10 07:01:19;;;;;;;;;;;;;;;21.34;56.18;101467.47;2207353;39;113580;-56
2021/07/10 07:02:52;;;;;;;;;;;;;;;21.36;55.85;101468.81;2211249;39;113923;-57
2021/07/10 07:04:24;;;;;;;;;;;;;;;21.40;56.19;101472.69;2211070;39;113855;-55
2021/07/10 07:05:55;;;;;;;;;;;;;;;21.41;56.13;101470.72;2211663;39;114026;-56
2021/07/10 07:07:27;;;;;;;;;;;;;;;21.45;56.23;101466.16;2211913;39;113730;-56
2021/07/10 07:08:59;;;;;;;;;;;;;;;21.48;56.63;101472.03;2211821;39;114220;-57
2021/07/10 07:10:31;;;;;;;;;;;;;;;21.52;56.53;101463.84;2204971;39;114402;-56
2021/07/10 07:12:03;;;;;;;;;;;;;;;21.55;57.12;101464.06;2207145;39;113558;-56
2021/07/10 07:13:35;;;;;;;;;;;;;;;21.60;57.34;101471.59;2212179;39;113931;-56
2021/07/10 07:15:09;;;;;;;;;;;;;;;21.63;57.15;101466.19;2212402;39;114617;-56
2021/07/10 07:16:41;;;;;;;;;;;;;;;21.66;57.11;101468.41;2210390;39;113956;-57
2021/07/10 07:18:15;;;;;;;;;;;;;;;21.74;56.66;101464.06;2211646;39;114519;-56
2021/07/10 07:20:10;;;;;;;;;;;;;;;21.77;56.57;101462.59;2216154;39;115230;-57
2021/07/10 07:21:42;;;;;;;;;;;;;;;21.80;56.06;101464.84;2211580;39;115102;-56
2021/07/10 07:23:14;;;;;;;;;;;;;;;21.83;56.02;101472.66;2209321;39;114789;-56
2021/07/10 07:24:46;;;;;;;;;;;;;;;21.86;55.94;101474.84;2211236;39;115121;-56
2021/07/10 07:26:19;;;;;;;;;;;;;;;21.89;56.19;101474.25;2211744;39;114205;-56
2021/07/10 07:27:51;;;;;;;;;;;;;;;21.92;56.03;101474.47;2210739;39;114822;-57
2021/07/10 07:29:23;;;;;;;;;;;;;;;21.95;55.88;101476.69;2211897;39;114780;-56
2021/07/10 07:30:55;;;;;;;;;;;;;;;21.97;55.63;101471.63;2211916;39;114803;-56
2021/07/10 07:32:29;;;;;;;;;;;;;;;22.01;55.55;101472.69;2211224;39;115196;-56
2021/07/10 07:34:01;;;;;;;;;;;;;;;22.04;55.52;101474.03;2209109;39;114909;-56
2021/07/10 07:35:33;;;;;;;;;;;;;;;22.07;55.13;101468.66;2211470;39;114767;-56
2021/07/10 07:37:05;;;;;;;;;;;;;;;22.09;55.28;101469.16;2211850;39;114723;-57
2021/07/10 07:38:37;;;;;;;;;;;;;;;22.11;54.98;101466.88;2211288;39;115381;-56
2021/07/10 07:40:10;;;;;;;;;;;;;;;22.13;54.63;101461.78;2211554;39;115316;-57
2021/07/10 07:41:42;;;;;;;;;;;;;;;22.15;54.72;101467.94;2214337;39;114701;-56
2021/07/10 07:43:14;;;;;;;;;;;;;;;22.17;54.61;101464.81;2211034;39;116094;-56
2021/07/10 07:44:46;;;;;;;;;;;;;;;22.18;54.25;101467.31;2211669;39;116413;-57
2021/07/10 07:46:18;;;;;;;;;;;;;;;22.21;53.93;101470.69;2206397;39;115858;-57
2021/07/10 07:47:50;;;;;;;;;;;;;;;22.21;53.98;101468.72;2211565;39;115373;-57